• Join FlightAware (Why Join?)
  • Login
  • US Flag 
06:41AM EST


 

Airport Tracker/Info


-or-


 

Live Flight TrackerFlight Track Log ✈ N600AJ ✈ 10-May-2013 ✈ KBTV - KROC

Flight Track Log - Related Links

Times and Time Zones

All times are in EDT time to prevent confusion due to time zone crossing. See the N600AJ flight status page for this flight to view local times or setup timezone preferences in your user account.

Time Position Orientation Groundspeed Altitude Reporting Facility
EDT Latitude Longitude Course Direction KTS MPH feet Rate Location/Type
02:14PM 44.4725 -73.3217 247° West 261 300 9,800  Level Boston Center
02:15PM 44.4406 -73.4286 247° West 287 330 14,000 3,780 Climbing Boston Center
02:16PM 44.4081 -73.5472 249° West 318 366 17,400 3,240 Climbing Boston Center
02:17PM 44.3736 -73.6714 249° West 337 388 20,500 2,280 Climbing Boston Center
02:18PM 44.3344 -73.8014 247° West 344 396 22,000 720 Climbing Boston Center
02:19PM 44.2744 -73.8210 247° West  Level FlightAware Approximate
02:19PM 44.2911 -73.9511 248° West 388 447 22,000  Level Boston Center
02:20PM 44.2472 -74.0978 247° West 408 470 22,000  Level Boston Center
02:21PM 44.2078 -74.2300 247° West 408 470 22,000  Level Boston Center
02:22PM 44.1569 -74.4078 248° West 413 475 22,000  Level Boston Center
02:23PM 44.1128 -74.5508 247° West 413 475 22,000  Level Boston Center
02:24PM 44.0703 -74.6969 248° West 413 475 22,000  Level Boston Center
02:25PM 44.0278 -74.8425 248° West 413 475 22,000  Level Boston Center
02:26PM 43.9831 -74.9850 246° West 413 475 22,000  Level Boston Center
02:27PM 43.9381 -75.1331 247° West 413 475 22,000 900 Level Boston Center
02:28PM 43.8950 -75.2753 247° West 413 475 23,800 840 Climbing Boston Center
02:29PM 43.8472 -75.4283 247° West 413 475 23,900 60 Climbing Boston Center
02:30PM 43.7903 -75.6097 247° West 424 488 24,000  Climbing Boston Center
02:31PM 43.7444 -75.7625 247° West 434 499 24,000  Level Boston Center
02:32PM 43.6961 -75.9150 246° West 434 499 24,000 -180 Level Boston Center
02:33PM 43.6478 -76.0617 246° West 434 499 23,700 -1,080 Descending Boston Center
02:34PM 43.6033 -76.2050 247° West 429 494 21,900 -1,800 Descending Boston Center
02:35PM 43.5592 -76.3458 247° West 416 479 20,100 -1,500 Descending Boston Center
02:36PM 43.5147 -76.4861 246° West 411 473 19,000 -360 Descending Boston Center
02:39PM 43.4094 -76.8053 246° West 393 452 19,000 -60 Level Cleveland Center
02:40PM 43.3617 -76.9422 244° Southwest 382 440 18,900 -900 Descending Cleveland Center
02:40PM 43.3522 -76.9744 248° West 335 386 17,900 -4,740 Descending Cleveland Center
02:41PM 43.3236 -77.0617 246° West 360 414 13,900 -4,260 Descending Cleveland Center
02:42PM 43.3147 -77.1764 264° West 330 380 10,400 -3,300 Descending Cleveland Center
02:43PM 43.3111 -77.2706 267° West 288 331 7,300 -3,000 Descending Cleveland Center
02:44PM 43.2969 -77.3569 257° West 259 298 4,500 -2,160 Descending Cleveland Center
02:45PM 43.2825 -77.4433 257° West 239 275 3,000 -1,020 Descending Cleveland Center
02:46PM 43.2619 -77.5269 251° West 239 275 2,500 -420 Descending Cleveland Center
02:46PM 43.2522 -77.5561 245° Southwest 245 282 2,500  Level Cleveland Center
02:47PM 43.2261 -77.5917 225° Southwest 229 264 2,500 -240 Level Cleveland Center
02:48PM 43.1892 -77.6217 211° Southwest 188 216 2,100 -600 Descending Cleveland Center
02:49PM 43.1567 -77.6489 211° Southwest 168 193 1,400 -720 Descending Cleveland Center